• Join FlightAware (Why Join?)
  • Login
  • US Flag 
05:31AM EDT


 

Airport Tracker/Info


-or-


 

Live Flight TrackerFlight Track Log ✈ UAL1007 ✈ 10-Jul-2013 ✈ KIAH - SKBO / BOG

Flight Track Log - Related Links

Times and Time Zones

All times are in EDT time to prevent confusion due to time zone crossing. See the UAL1007 flight status page for this flight to view local times or setup timezone preferences in your user account.

Time Position Orientation Groundspeed Altitude Reporting Facility
EDT Latitude Longitude Course Direction KTS MPH feet Rate Location/Type
04:50PM 29.9545 -95.3366 136° Southeast 173 199 900  Level FlightAware ADS-B
04:50PM 29.9467 -95.3272 134° Southeast 175 201 1,500 2,040 Climbing FlightAware ADS-B
04:50PM 29.9348 -95.3131 134° Southeast 184 212 2,100 1,320 Climbing FlightAware ADS-B
04:50PM 29.9278 -95.3049 135° Southeast 208 239 2,200 1,140 Climbing FlightAware ADS-B
04:51PM 29.9166 -95.2918 135° Southeast 228 262 2,600 1,500 Climbing FlightAware ADS-B
04:51PM 29.9048 -95.2781 135° Southeast 244 281 3,000 1,800 Climbing FlightAware ADS-B
04:51PM 29.8924 -95.2635 134° Southeast 259 298 3,500 1,500 Climbing FlightAware ADS-B
04:51PM 29.8796 -95.2482 134° Southeast 264 304 3,800 1,500 Climbing FlightAware ADS-B
04:52PM 29.8667 -95.2329 134° Southeast 261 300 4,300 2,580 Climbing FlightAware ADS-B
04:52PM 29.8538 -95.2180 135° Southeast 264 304 5,100 3,000 Climbing FlightAware ADS-B
04:52PM 29.8404 -95.2027 135° Southeast 269 310 5,800 2,580 Climbing FlightAware ADS-B
04:53PM 29.8214 -95.1797 133° Southeast 280 322 6,700 2,700 Climbing FlightAware ADS-B
04:53PM 29.7851 -95.1351 135° Southeast 284 327 8,600 3,000 Climbing FlightAware ADS-B
04:53PM 29.7809 -95.1305 136° Southeast 280 322 8,900 3,960 Climbing FlightAware ADS-B
04:53PM 29.7760 -95.1258 140° Southeast 276 318 9,200 3,960 Climbing FlightAware ADS-B
04:53PM 29.7716 -95.1224 146° Southeast 274 315 9,500 3,720 Climbing FlightAware ADS-B
04:54PM 29.7675 -95.1195 148° Southeast 272 313 9,700 2,700 Climbing FlightAware ADS-B
04:54PM 29.7448 -95.1069 154° Southeast 277 319 10,600 1,800 Climbing FlightAware ADS-B
04:56PM 29.5765 -95.0210 156° South 363 418 13,900 1,800 Climbing FlightAware ADS-B
04:57PM 29.4985 -94.9816 156° South 376 433 15,700 1,440 Climbing FlightAware ADS-B
04:57PM 29.4478 -94.9561 156° South 380 437 15,900 540 Climbing FlightAware ADS-B
04:58PM 29.3972 -94.9306 156° South 401 461 16,300 840 Climbing FlightAware ADS-B
04:58PM 29.3173 -94.8902 156° South 433 498 17,000 960 Climbing FlightAware ADS-B
04:59PM 29.2799 -94.8706 155° Southeast 444 511 17,400 1,260 Climbing FlightAware ADS-B
04:59PM 29.2221 -94.8345 151° Southeast 455 524 18,100 1,320 Climbing FlightAware ADS-B
05:00PM 29.1668 -94.7969 149° Southeast 463 533 18,800 1,440 Climbing FlightAware ADS-B
05:00PM 29.1072 -94.7559 149° Southeast 468 539 19,600 1,680 Climbing FlightAware ADS-B
05:01PM 29.0343 -94.7061 149° Southeast 472 543 20,800 1,860 Climbing FlightAware ADS-B
05:02PM 28.9785 -94.6680 149° Southeast 470 541 21,800 1,560 Climbing FlightAware ADS-B
05:02PM 28.9177 -94.6268 149° Southeast 474 545 22,500 1,320 Climbing FlightAware ADS-B
05:03PM 28.8601 -94.5877 149° Southeast 478 550 23,200 1,320 Climbing FlightAware ADS-B
05:03PM 28.8013 -94.5480 149° Southeast 484 557 23,900 1,200 Climbing FlightAware ADS-B
05:04PM 28.7402 -94.5067 149° Southeast 489 563 24,500 1,200 Climbing FlightAware ADS-B
05:04PM 28.6776 -94.4643 149° Southeast 494 568 25,200 1,200 Climbing FlightAware ADS-B
05:05PM 28.6154 -94.4224 149° Southeast 498 573 25,800 1,500 Climbing FlightAware ADS-B
05:05PM 28.5538 -94.3810 149° Southeast 493 567 26,800 1,800 Climbing FlightAware ADS-B
05:06PM 28.4915 -94.3391 149° Southeast 490 564 27,700 1,740 Climbing FlightAware ADS-B
05:06PM 28.4326 -94.2996 149° Southeast 488 562 28,600 1,680 Climbing FlightAware ADS-B
05:07PM 28.3449 -94.2407 149° Southeast 486 559 29,800 1,680 Climbing FlightAware ADS-B
05:07PM 28.2867 -94.2018 150° Southeast 482 555 30,700 1,380 Climbing FlightAware ADS-B
05:08PM 28.2153 -94.1586 150° Southeast 480 552 31,700 1,320 Climbing Houston Center
05:09PM 28.1075 -94.0719 145° Southeast 475 547 33,200 480 Climbing Houston Center
05:15PM 27.5443 -93.5296 145° Southeast 460 529 35,000 240 Climbing FlightAware ADS-B
05:16PM 27.4648 -93.4547 140° Southeast 460 529 35,000  Level FlightAware ADS-B
05:16PM 27.4131 -93.4061 140° Southeast 457 526 35,000  Level FlightAware ADS-B
05:17PM 27.3274 -93.3260 140° Southeast 458 527 35,000  Level FlightAware ADS-B
05:18PM 27.2817 -93.2878 140° Southeast 457 526 35,000  Level Houston Center
05:19PM 27.1847 -93.1944 139° Southeast 458 527 35,000  Level Houston Center
05:20PM 27.0861 -93.1033 141° Southeast 459 528 35,000  Level Houston Center
05:21PM 26.9819 -93.0056 140° Southeast 461 531 35,000  Level Houston Center
05:22PM 26.8836 -92.9158 141° Southeast 459 528 35,000  Level Houston Center
05:23PM 26.7828 -92.8272 142° Southeast 459 528 35,000  Level Houston Center
05:24PM 26.6497 -92.7353 148° Southeast 468 539 35,000  Level Houston Center
05:26PM 26.4833 -92.6255 149° Southeast  Level FlightAware Approximate
05:33PM 25.7765 -92.1628 150° Southeast  Level FlightAware Approximate
05:34PM 25.6756 -92.0969 150° Southeast  Level FlightAware Approximate
05:35PM 25.5746 -92.0311 150° Southeast  Level FlightAware Approximate
05:36PM 25.4736 -91.9654 150° Southeast  Level FlightAware Approximate
05:37PM 25.3725 -91.8999 150° Southeast  Level FlightAware Approximate
05:38PM 25.2715 -91.8344 150° Southeast  Level FlightAware Approximate
05:39PM 25.1703 -91.7691 150° Southeast  Level FlightAware Approximate
05:40PM 25.0695 -91.7032 149° Southeast  Level FlightAware Approximate
05:41PM 24.9687 -91.6374 149° Southeast  Level FlightAware Approximate
05:42PM 24.8679 -91.5718 149° Southeast  Level FlightAware Approximate
05:43PM 24.7670 -91.5062 149° Southeast  Level FlightAware Approximate
05:44PM 24.6661 -91.4408 149° Southeast  Level FlightAware Approximate
05:45PM 24.5651 -91.3754 150° Southeast  Level FlightAware Approximate
05:46PM 24.4677 -91.3047 141° Southeast  Level FlightAware Approximate
05:47PM 24.3765 -91.2239 141° Southeast  Level FlightAware Approximate
05:48PM 24.2854 -91.1432 141° Southeast  Level FlightAware Approximate
05:49PM 24.1941 -91.0627 141° Southeast  Level FlightAware Approximate
05:50PM 24.1028 -90.9823 141° Southeast  Level FlightAware Approximate
05:51PM 24.0115 -90.9019 141° Southeast  Level FlightAware Approximate
05:51PM 23.7410 -90.6780 141° Southeast 467 537 35,000  Level FlightAware
05:52PM 23.6070 -90.5620 142° Southeast 466 536 35,000  Level FlightAware
05:53PM 23.5300 -90.4960 142° Southeast 468 539 35,000  Level FlightAware
05:54PM 23.4150 -90.3960 141° Southeast 467 537 35,000  Level FlightAware
05:55PM 23.3400 -90.3310 141° Southeast 467 537 35,000  Level FlightAware
05:55PM 23.2730 -90.2730 142° Southeast 466 536 35,000  Level FlightAware
05:56PM 23.2050 -90.2150 142° Southeast 466 536 35,000  Level FlightAware
05:57PM 23.1320 -90.1520 142° Southeast 467 537 35,000  Level FlightAware
05:57PM 23.0590 -90.0900 142° Southeast 467 537 35,000  Level FlightAware
05:58PM 22.9900 -90.0300 141° Southeast 468 539 35,000  Level FlightAware
05:59PM 22.9180 -89.9680 142° Southeast 468 539 35,000 60 Level FlightAware
05:59PM 22.8570 -89.9120 140° Southeast 467 537 35,100 960 Climbing FlightAware
06:00PM 22.7650 -89.8090 134° Southeast 460 529 36,600 1,080 Climbing FlightAware
06:01PM 22.7010 -89.7400 135° Southeast 459 528 37,000 240 Climbing FlightAware
06:02PM 22.6370 -89.6700 135° Southeast 459 528 37,000  Level FlightAware
06:03PM 22.5720 -89.5960 134° Southeast 456 525 37,000  Level FlightAware
06:03PM 22.5130 -89.5300 134° Southeast 454 522 37,000  Level FlightAware
06:04PM 22.4490 -89.4590 134° Southeast 453 521 37,000  Level FlightAware
06:05PM 22.3950 -89.3990 134° Southeast 452 520 37,000  Level FlightAware
06:05PM 22.3280 -89.3250 134° Southeast 454 522 37,000  Level FlightAware
06:06PM 22.2660 -89.2550 134° Southeast 455 524 37,000  Level FlightAware
06:07PM 22.2050 -89.1860 134° Southeast 456 525 37,000  Level FlightAware
06:08PM 22.1430 -89.1180 135° Southeast 458 527 37,000  Level FlightAware
06:08PM 22.0880 -89.0570 134° Southeast 458 527 37,000  Level FlightAware
06:09PM 22.0290 -88.9910 134° Southeast 460 529 37,000  Level FlightAware
06:10PM 21.9640 -88.9180 134° Southeast 460 529 37,000  Level FlightAware
06:10PM 21.9160 -88.8650 134° Southeast 460 529 37,000  Level FlightAware
06:11PM 21.8430 -88.7840 134° Southeast 460 529 37,000  Level FlightAware
06:12PM 21.7740 -88.7080 134° Southeast 461 531 37,000  Level FlightAware
06:12PM 21.7060 -88.6330 134° Southeast 462 532 37,000  Level FlightAware
06:13PM 21.6440 -88.5640 134° Southeast 462 532 37,000  Level FlightAware
06:14PM 21.5840 -88.4980 134° Southeast 463 533 37,000  Level FlightAware
06:14PM 21.5230 -88.4310 134° Southeast 466 536 37,000  Level FlightAware
06:15PM 21.5080 -88.4140 133° Southeast 466 536 37,000  Level FlightAware
06:16PM 21.3970 -88.2920 134° Southeast 468 539 37,000  Level FlightAware
06:17PM 21.3060 -88.1930 135° Southeast 470 541 37,000  Level FlightAware
06:18PM 21.2380 -88.1180 134° Southeast 469 540 37,000  Level FlightAware
06:18PM 21.1780 -88.0520 134° Southeast 470 541 37,000  Level FlightAware
06:19PM 21.1230 -87.9920 134° Southeast 470 541 37,000  Level FlightAware
06:20PM 21.0600 -87.9230 134° Southeast 470 541 37,000  Level FlightAware
06:20PM 21.0010 -87.8590 135° Southeast 471 542 37,000  Level FlightAware
06:21PM 20.9370 -87.7890 134° Southeast 473 544 37,000  Level FlightAware
06:22PM 20.8660 -87.7120 135° Southeast 473 544 37,000  Level FlightAware
06:22PM 20.7990 -87.6390 134° Southeast 473 544 37,000  Level FlightAware
06:23PM 20.7380 -87.5720 134° Southeast 472 543 37,000  Level FlightAware
06:24PM 20.6780 -87.5190 140° Southeast 467 537 37,000  Level FlightAware
06:24PM 20.6080 -87.4660 145° Southeast 466 536 37,000  Level FlightAware
06:25PM 20.5290 -87.4070 145° Southeast 466 536 37,000  Level FlightAware
06:26PM 20.4580 -87.3540 145° Southeast 466 536 37,000  Level FlightAware
06:26PM 20.3990 -87.3000 139° Southeast 468 539 37,000  Level FlightAware
06:27PM 20.3360 -87.2380 137° Southeast 470 541 37,000  Level FlightAware
06:28PM 20.2880 -87.1590 123° Southeast 479 551 37,000  Level FlightAware
06:28PM 20.2440 -87.0680 117° Southeast 478 550 37,000  Level FlightAware
06:29PM 20.2000 -86.9740 116° Southeast 477 549 37,000  Level FlightAware
06:30PM 20.1590 -86.8220 106° East 478 550 37,000  Level FlightAware
06:31PM 20.1320 -86.6950 103° East 478 550 37,000  Level FlightAware
06:32PM 20.1110 -86.5910 102° East 480 552 37,000  Level FlightAware
06:33PM 20.0900 -86.4870 102° East 482 555 37,000  Level FlightAware
06:33PM 20.0720 -86.3960 102° East 484 557 37,000  Level FlightAware
06:34PM 20.0500 -86.2900 102° East 482 555 37,000  Level FlightAware
06:35PM 20.0040 -86.2110 122° Southeast 462 532 37,000  Level FlightAware
06:35PM 19.9250 -86.1600 149° Southeast 460 529 37,000  Level FlightAware
06:36PM 19.8510 -86.1140 150° Southeast 459 528 37,000  Level FlightAware
06:37PM 19.7700 -86.0650 150° Southeast 461 531 37,000  Level FlightAware
06:37PM 19.6970 -86.0390 161° South 457 526 37,000  Level FlightAware
06:38PM 19.6040 -85.9970 157° South 460 529 37,000  Level FlightAware
06:39PM 19.5440 -85.9600 150° Southeast 463 533 37,000  Level FlightAware
06:40PM 19.4390 -85.8880 147° Southeast 469 540 37,000  Level FlightAware
06:40PM 19.3650 -85.8370 147° Southeast 473 544 37,000  Level FlightAware
06:41PM 19.2870 -85.7780 144° Southeast 477 549 37,000  Level FlightAware
06:42PM 19.2180 -85.7230 143° Southeast 484 557 37,000  Level FlightAware
06:42PM 19.1950 -85.6930 129° Southeast 491 565 37,000  Level FlightAware
06:43PM 19.1660 -85.5870 106° East 497 572 37,000  Level FlightAware
06:43PM 19.1320 -85.5470 132° Southeast 480 552 37,000  Level FlightAware
06:44PM 19.0460 -85.4890 147° Southeast 473 544 37,000  Level FlightAware
06:45PM 18.9590 -85.4500 157° South 472 543 37,000  Level FlightAware
06:46PM 18.8550 -85.4040 157° South 468 539 37,000  Level FlightAware
06:46PM 18.7920 -85.3770 158° South 468 539 37,000  Level FlightAware
06:47PM 18.7100 -85.3420 158° South 468 539 37,000  Level FlightAware
06:48PM 18.6470 -85.3150 158° South 468 539 37,000  Level FlightAware
06:49PM 18.5630 -85.2790 158° South 468 539 37,000  Level FlightAware
06:49PM 18.5000 -85.2520 158° South 468 539 37,000  Level FlightAware
06:50PM 18.4180 -85.2180 159° South 468 539 37,000  Level FlightAware
06:51PM 18.3570 -85.1910 157° South 468 539 37,000  Level FlightAware
06:51PM 18.2730 -85.1560 158° South 468 539 37,000  Level FlightAware
06:52PM 18.2120 -85.1300 158° South 468 539 37,000  Level FlightAware
06:53PM 18.1090 -85.0860 158° South 468 539 37,000  Level FlightAware
06:54PM 18.0270 -85.0510 158° South 468 539 37,000  Level FlightAware
06:54PM 17.9640 -85.0250 159° South 468 539 37,000  Level FlightAware
06:55PM 17.8820 -84.9900 158° South 468 539 37,000  Level FlightAware
06:58PM 17.6744 -84.8065 147° Southeast  Level Estimated
06:59PM 17.5734 -84.7443 150° Southeast  Level FlightAware Approximate
07:00PM 17.4724 -84.6822 150° Southeast  Level FlightAware Approximate
07:01PM 17.3713 -84.6202 150° Southeast  Level FlightAware Approximate
07:02PM 17.2703 -84.5582 150° Southeast  Level FlightAware Approximate
07:03PM 17.1692 -84.4963 150° Southeast  Level FlightAware Approximate
07:04PM 17.0681 -84.4344 150° Southeast  Level FlightAware Approximate
07:05PM 16.9669 -84.3727 150° Southeast  Level FlightAware Approximate
07:06PM 16.8658 -84.3109 150° Southeast  Level FlightAware Approximate
07:07PM 16.7646 -84.2493 150° Southeast  Level FlightAware Approximate
07:08PM 16.6634 -84.1877 150° Southeast  Level FlightAware Approximate
07:09PM 16.5622 -84.1262 150° Southeast  Level FlightAware Approximate
07:10PM 16.4610 -84.0647 150° Southeast  Level FlightAware Approximate
07:11PM 16.3598 -84.0033 150° Southeast  Level FlightAware Approximate
07:12PM 16.2585 -83.9420 150° Southeast  Level FlightAware Approximate
07:13PM 16.1572 -83.8808 150° Southeast  Level FlightAware Approximate
07:14PM 16.0560 -83.8196 150° Southeast  Level FlightAware Approximate
07:15PM 15.9546 -83.7584 150° Southeast  Level FlightAware Approximate
07:16PM 15.8533 -83.6974 150° Southeast  Level FlightAware Approximate
07:17PM 15.7520 -83.6364 150° Southeast  Level FlightAware Approximate
07:18PM 15.6506 -83.5754 150° Southeast  Level FlightAware Approximate
07:19PM 15.5492 -83.5145 150° Southeast  Level FlightAware Approximate
07:20PM 15.4479 -83.4537 150° Southeast  Level FlightAware Approximate
07:21PM 15.3464 -83.3929 150° Southeast  Level FlightAware Approximate
07:22PM 15.2450 -83.3322 150° Southeast  Level FlightAware Approximate
07:23PM 15.1436 -83.2716 150° Southeast  Level FlightAware Approximate
07:24PM 15.0421 -83.2110 150° Southeast  Level FlightAware Approximate
07:25PM 14.9406 -83.1504 150° Southeast  Level FlightAware Approximate
07:26PM 14.8392 -83.0899 150° Southeast  Level FlightAware Approximate
07:27PM 14.7376 -83.0295 150° Southeast  Level FlightAware Approximate
07:28PM 14.6361 -82.9691 150° Southeast  Level FlightAware Approximate
07:29PM 14.5346 -82.9088 150° Southeast  Level FlightAware Approximate
07:30PM 14.4330 -82.8486 150° Southeast  Level FlightAware Approximate
07:31PM 14.3315 -82.7884 150° Southeast  Level FlightAware Approximate
07:32PM 14.2299 -82.7282 150° Southeast  Level FlightAware Approximate
07:33PM 14.1283 -82.6681 150° Southeast  Level FlightAware Approximate
07:34PM 14.0267 -82.6081 150° Southeast  Level FlightAware Approximate
07:35PM 13.9250 -82.5481 150° Southeast  Level FlightAware Approximate
07:36PM 13.8390 -82.4663 148° Southeast  Level Estimated
07:37PM 13.7384 -82.4045 149° Southeast  Level FlightAware Approximate
07:38PM 13.6378 -82.3429 149° Southeast  Level FlightAware Approximate
07:39PM 13.5371 -82.2812 149° Southeast  Level FlightAware Approximate
07:40PM 13.4365 -82.2196 149° Southeast  Level FlightAware Approximate
07:41PM 13.3358 -82.1581 149° Southeast  Level FlightAware Approximate
07:42PM 13.2352 -82.0966 149° Southeast  Level FlightAware Approximate
07:43PM 13.1345 -82.0352 149° Southeast  Level FlightAware Approximate
07:44PM 13.0337 -81.9738 149° Southeast  Level FlightAware Approximate
07:45PM 12.9330 -81.9125 149° Southeast  Level FlightAware Approximate
07:46PM 12.8323 -81.8512 149° Southeast  Level FlightAware Approximate
07:47PM 12.7315 -81.7900 149° Southeast  Level FlightAware Approximate
07:48PM 12.6308 -81.7288 149° Southeast  Level FlightAware Approximate
07:49PM 12.5466 -81.6454 140° Southeast  Level Estimated
07:50PM 12.4562 -81.5691 141° Southeast  Level FlightAware Approximate
07:51PM 12.3657 -81.4929 141° Southeast  Level FlightAware Approximate
07:52PM 12.2753 -81.4167 141° Southeast  Level FlightAware Approximate
07:53PM 12.1848 -81.3406 141° Southeast  Level FlightAware Approximate
07:53PM 11.3570 -80.5490 141° Southeast 454 522 37,000  Level FlightAware
07:54PM 12.0944 -81.2646 141° Southeast  Level FlightAware Approximate
07:54PM 11.2940 -80.4730 130° Southeast 460 529 37,000  Level FlightAware
07:55PM 11.2410 -80.4080 130° Southeast 460 529 37,000  Level FlightAware
07:55PM 11.1920 -80.3480 130° Southeast 460 529 37,000  Level FlightAware
07:56PM 11.1410 -80.2860 130° Southeast 454 522 37,000  Level FlightAware
07:57PM 11.0740 -80.2040 130° Southeast 456 525 37,000  Level FlightAware
07:57PM 11.0130 -80.1310 130° Southeast 457 526 37,000  Level FlightAware
07:58PM 10.9560 -80.0630 130° Southeast 457 526 37,000  Level FlightAware
07:59PM 10.8860 -80.0100 143° Southeast 456 525 37,000  Level FlightAware
08:00PM 10.8020 -79.9690 154° Southeast 460 529 37,000  Level FlightAware
08:00PM 10.6830 -79.9670 179° South 451 519 37,000  Level FlightAware
08:01PM 10.5990 -79.9760 186° South 451 519 37,000  Level FlightAware
08:02PM 10.5020 -79.9670 175° South 462 532 37,000  Level FlightAware
08:03PM 10.4240 -79.9300 155° Southeast 469 540 37,000  Level FlightAware
08:03PM 10.3480 -79.8880 151° Southeast 466 536 37,000  Level FlightAware
08:04PM 10.2900 -79.8240 133° Southeast 468 539 37,000  Level FlightAware
08:05PM 10.2250 -79.7530 133° Southeast 468 539 37,000  Level FlightAware
08:05PM 10.1630 -79.6860 133° Southeast 461 531 37,000  Level FlightAware
08:06PM 10.0960 -79.6140 133° Southeast 468 539 37,000  Level FlightAware
08:07PM 10.0370 -79.5500 133° Southeast 466 536 37,000  Level FlightAware
08:07PM 9.9790 -79.4870 133° Southeast 467 537 37,000  Level FlightAware
08:08PM 9.9080 -79.4190 137° Southeast 466 536 37,000  Level FlightAware
08:09PM 9.8340 -79.3560 140° Southeast 466 536 37,000  Level FlightAware
08:10PM 9.7660 -79.2990 140° Southeast 467 537 37,000  Level FlightAware
08:10PM 9.6990 -79.2420 140° Southeast 466 536 37,000  Level FlightAware
08:11PM 9.6160 -79.1720 140° Southeast 466 536 37,000  Level FlightAware
08:12PM 9.5490 -79.1150 140° Southeast 466 536 37,000  Level FlightAware
08:12PM 9.4750 -79.0520 140° Southeast 463 533 37,000  Level FlightAware
08:13PM 9.4070 -78.9950 140° Southeast 463 533 37,000  Level FlightAware
08:14PM 9.3420 -78.9400 140° Southeast 463 533 37,000  Level FlightAware
08:15PM 9.2730 -78.8810 140° Southeast 463 533 37,000  Level FlightAware
08:15PM 9.1960 -78.8160 140° Southeast 463 533 37,000  Level FlightAware
08:16PM 9.1380 -78.7670 140° Southeast 463 533 37,000  Level FlightAware
08:17PM 9.0490 -78.6920 140° Southeast 470 541 37,000  Level FlightAware
08:17PM 8.9820 -78.6350 140° Southeast 469 540 37,000  Level FlightAware
08:18PM 8.9170 -78.5800 140° Southeast 466 536 37,000  Level FlightAware
08:19PM 8.8490 -78.5230 140° Southeast 464 534 37,000  Level FlightAware
08:19PM 8.7760 -78.4630 141° Southeast 461 531 37,000  Level FlightAware
08:20PM 8.7140 -78.4090 139° Southeast 461 531 37,000  Level FlightAware
08:21PM 8.6640 -78.3670 140° Southeast 461 531 37,000  Level FlightAware
08:22PM 8.5560 -78.2770 141° Southeast 462 532 37,000  Level FlightAware
08:22PM 8.4800 -78.2130 140° Southeast 464 534 37,000  Level FlightAware
08:23PM 8.4200 -78.1630 140° Southeast 463 533 37,000  Level FlightAware
08:24PM 8.3530 -78.0950 135° Southeast 462 532 37,000  Level FlightAware
08:24PM 8.2960 -78.0310 132° Southeast 464 534 37,000  Level FlightAware
08:25PM 8.2390 -77.9680 132° Southeast 465 535 37,000  Level FlightAware
08:26PM 8.1800 -77.9010 132° Southeast 467 537 37,000  Level FlightAware
08:27PM 8.1140 -77.8280 132° Southeast 470 541 37,000  Level FlightAware
08:27PM 8.0560 -77.7630 132° Southeast 469 540 37,000  Level FlightAware
08:28PM 8.0050 -77.7060 132° Southeast 469 540 37,000  Level FlightAware
08:29PM 7.9420 -77.6370 133° Southeast 469 540 37,000  Level FlightAware
08:29PM 7.8810 -77.5690 132° Southeast 468 539 37,000  Level FlightAware
08:29PM 7.8670 -77.5530 131° Southeast 467 537 37,000  Level FlightAware
08:31PM 7.7580 -77.4320 132° Southeast 466 536 37,000  Level FlightAware
08:31PM 7.6930 -77.3600 132° Southeast 464 534 37,000  Level FlightAware
08:32PM 7.6350 -77.2940 132° Southeast 462 532 37,000  Level FlightAware
08:33PM 7.5750 -77.2270 132° Southeast 463 533 37,000  Level FlightAware
08:33PM 7.5150 -77.1590 132° Southeast 463 533 37,000  Level FlightAware
08:34PM 7.4640 -77.1010 132° Southeast 463 533 37,000  Level FlightAware
08:35PM 7.3870 -77.0140 132° Southeast 463 533 37,000  Level FlightAware
08:36PM 7.3240 -76.9440 132° Southeast 463 533 37,000  Level FlightAware
08:36PM 7.2600 -76.8710 131° Southeast 466 536 37,000  Level FlightAware
08:37PM 7.2020 -76.8070 132° Southeast 467 537 37,000  Level FlightAware
08:38PM 7.1450 -76.7420 131° Southeast 467 537 37,000  Level FlightAware
08:38PM 7.0870 -76.6770 132° Southeast 468 539 37,000  Level FlightAware
08:39PM 7.0210 -76.6040 132° Southeast 468 539 37,000  Level FlightAware
08:40PM 6.9700 -76.5460 132° Southeast 468 539 37,000  Level FlightAware
08:41PM 6.9010 -76.4690 132° Southeast 470 541 37,000  Level FlightAware
08:41PM 6.8400 -76.4010 132° Southeast 470 541 37,000  Level FlightAware
08:42PM 6.7740 -76.3270 132° Southeast 470 541 37,000  Level FlightAware
08:43PM 6.7240 -76.2710 132° Southeast 471 542 37,000  Level FlightAware
08:43PM 6.6570 -76.1970 132° Southeast 469 540 37,000  Level FlightAware
08:44PM 6.5980 -76.1310 132° Southeast 469 540 37,000  Level FlightAware
08:45PM 6.5330 -76.0590 132° Southeast 469 540 37,000  Level FlightAware
08:45PM 6.4750 -75.9940 132° Southeast 470 541 37,000  Level FlightAware
08:46PM 6.4100 -75.9210 132° Southeast 469 540 37,000  Level FlightAware
08:47PM 6.3590 -75.8640 132° Southeast 470 541 37,000  Level FlightAware
08:48PM 6.2910 -75.7890 132° Southeast 472 543 37,000  Level FlightAware
08:48PM 6.2240 -75.7150 132° Southeast 474 545 37,000  Level FlightAware
08:49PM 6.1740 -75.6580 131° Southeast 474 545 37,000  Level FlightAware
08:50PM 6.1100 -75.5880 133° Southeast 476 548 37,000  Level FlightAware
08:50PM 6.0500 -75.5210 132° Southeast 477 549 37,000  Level FlightAware
08:51PM 5.9920 -75.4590 133° Southeast 479 551 37,000 -120 Level FlightAware
08:52PM 5.9190 -75.4020 142° Southeast 483 556 36,900 -600 Descending FlightAware
08:52PM 5.8330 -75.3480 148° Southeast 479 551 36,200 -720 Descending FlightAware
08:53PM 5.7670 -75.3060 148° Southeast 480 552 35,900 -240 Descending FlightAware
08:54PM 5.6930 -75.2600 148° Southeast 480 552 35,900 -2,220 Level FlightAware
08:55PM 5.5990 -75.2000 148° Southeast 423 487 32,800 -3,480 Descending FlightAware
08:55PM 5.5410 -75.1630 148° Southeast 400 460 31,600 -2,460 Descending FlightAware
08:56PM 5.4780 -75.1240 148° Southeast 388 447 29,700 -2,880 Descending FlightAware
08:57PM 5.4120 -75.0810 147° Southeast 385 443 27,600 -2,340 Descending FlightAware
08:57PM 5.3570 -75.0470 148° Southeast 382 440 26,600 -1,620 Descending FlightAware
08:58PM 5.2980 -75.0090 147° Southeast 373 429 25,600 -1,380 Descending FlightAware
08:59PM 5.2350 -74.9680 147° Southeast 362 417 24,700 -1,320 Descending FlightAware
08:59PM 5.2140 -74.9420 129° Southeast 350 403 24,200 -1,500 Descending FlightAware
08:59PM 5.2080 -74.9240 109° East 345 397 23,900 -1,800 Descending FlightAware
09:00PM 5.2130 -74.8540 86° East 346 398 22,500 -1,380 Descending FlightAware
09:00PM 5.2220 -74.7920 82° East 331 381 22,000 -1,140 Descending FlightAware
09:01PM 5.2330 -74.7270 80° East 326 375 21,000 -1,500 Descending FlightAware
09:02PM 5.2410 -74.6700 82° East 327 376 20,000 -780 Descending FlightAware
09:02PM 5.2490 -74.6190 81° East 327 376 20,000  Level FlightAware
09:03PM 5.2580 -74.5580 82° East 327 376 20,000  Level FlightAware
09:04PM 5.2660 -74.5110 80° East 327 376 20,000  Level FlightAware
09:04PM 5.2730 -74.4650 81° East 327 376 20,000  Level FlightAware
09:05PM 5.2830 -74.4040 81° East 327 376 20,000 -2,100 Level FlightAware
09:08PM 5.0366 -74.2950 156° South  Level Estimated
09:09PM 4.9254 -74.2458 156° South  Level Estimated
09:09PM 4.9470 -74.3590 156° South 289 333 11,700  Level FlightAware
09:09PM 4.8940 -74.3510 171° South 257 296 11,600  Descending FlightAware
09:10PM 4.8480 -74.3440 171° South 218 251 11,700  Climbing FlightAware
09:10PM 4.8270 -74.3340 155° Southeast 197 227 11,600 -480 Descending FlightAware
09:11PM 4.8030 -74.3100 135° Southeast 200 230 11,200 -840 Descending FlightAware
09:12PM 4.7780 -74.2770 127° Southeast 194 223 10,500 -720 Descending FlightAware
09:12PM 4.7590 -74.2510 126° Southeast 194 223 10,300 -180 Descending FlightAware
09:13PM 4.7370 -74.2220 127° Southeast 194 223 10,300  Level FlightAware
09:14PM 4.7200 -74.2000 128° Southeast 194 223 10,300  Level FlightAware
09:16PM 4.7016 -74.1469 117° Southeast  Level Estimated